Time;durP1;ratioP1;P1;durP2;ratioP2;P2;SDS_P1;SDS_P2;PMS_P1;PMS_P2;Temp;Humidity;BMP_temperature;BMP_pressure;BME280_temperature;BME280_humidity;BME280_pressure;Samples;Min_cycle;Max_cycle;Signal;HPM_P1;HPM_P2
2022/01/17 00:02:05;;;;;;;9.83;9.53;;;2.40;99.90;;;;;;4999376;28;20233;-85
2022/01/17 00:04:35;;;;;;;9.57;9.27;;;2.40;99.90;;;;;;5006471;28;20233;-83
2022/01/17 00:07:04;;;;;;;9.77;9.47;;;2.50;99.90;;;;;;5006930;28;20213;-84
2022/01/17 00:09:33;;;;;;;10.00;9.70;;;2.50;99.90;;;;;;5007199;28;20237;-84
2022/01/17 00:12:03;;;;;;;10.10;9.80;;;2.50;99.90;;;;;;5011429;28;20224;-83
2022/01/17 00:14:35;;;;;;;9.90;9.60;;;2.50;99.90;;;;;;5005696;28;20247;-84
2022/01/17 00:17:27;;;;;;;9.60;9.30;;;2.50;99.90;;;;;;5004002;28;20220;-84
2022/01/17 00:20:07;;;;;;;9.70;9.40;;;2.50;99.90;;;;;;5004123;28;20293;-83
2022/01/17 00:22:35;;;;;;;9.53;9.23;;;2.40;99.90;;;;;;5003982;28;20323;-84
2022/01/17 00:25:05;;;;;;;9.67;9.37;;;2.40;99.90;;;;;;5005108;28;20260;-83
2022/01/17 00:27:35;;;;;;;10.10;9.80;;;2.40;99.90;;;;;;5005925;28;20232;-84
2022/01/17 00:30:04;;;;;;;9.70;9.40;;;2.40;99.90;;;;;;5006205;28;20264;-83
2022/01/17 00:33:12;;;;;;;9.60;9.30;;;2.40;99.90;;;;;;5005707;28;20775;-83
2022/01/17 00:35:40;;;;;;;9.60;9.30;;;2.40;99.90;;;;;;5004211;28;20327;-84
2022/01/17 00:38:08;;;;;;;9.70;9.40;;;2.40;99.90;;;;;;5004948;28;20232;-83
2022/01/17 00:40:37;;;;;;;9.60;9.30;;;2.30;99.90;;;;;;5005640;28;20232;-82
2022/01/17 00:43:06;;;;;;;9.53;9.23;;;2.30;99.90;;;;;;5005875;28;20221;-83
2022/01/17 00:45:38;;;;;;;9.53;9.23;;;2.40;99.90;;;;;;5004591;28;20288;-83
2022/01/17 00:48:10;;;;;;;9.80;9.50;;;2.40;99.90;;;;;;5006072;28;20225;-83
2022/01/17 00:50:44;;;;;;;9.70;9.40;;;2.40;99.90;;;;;;5005424;28;20236;-83
2022/01/17 00:53:14;;;;;;;9.40;9.10;;;2.50;99.90;;;;;;5004342;28;20267;-83
2022/01/17 00:55:42;;;;;;;9.47;9.17;;;2.50;99.90;;;;;;5004030;28;20264;-83
2022/01/17 00:58:10;;;;;;;9.80;9.50;;;2.40;99.90;;;;;;5004396;28;20232;-83
2022/01/17 01:00:41;;;;;;;9.80;9.50;;;2.40;99.90;;;;;;5005562;28;20240;-83
2022/01/17 01:06:01;;;;;;;9.70;9.40;;;2.50;99.90;;;;;;5004552;28;20225;-83
2022/01/17 01:08:29;;;;;;;9.57;9.27;;;2.40;99.90;;;;;;5009348;28;20290;-84
2022/01/17 01:10:57;;;;;;;9.57;9.27;;;2.50;99.90;;;;;;5011435;28;20232;-83
2022/01/17 01:13:29;;;;;;;9.87;9.57;;;2.50;99.90;;;;;;5009371;28;20243;-84
2022/01/17 01:19:07;;;;;;;9.70;9.40;;;2.50;99.90;;;;;;5005409;28;20239;-84
2022/01/17 01:21:48;;;;;;;9.60;9.30;;;2.50;99.90;;;;;;5004376;28;20224;-83
2022/01/17 01:29:50;;;;;;;9.63;9.33;;;2.40;99.90;;;;;;5009633;28;20213;-82
2022/01/17 01:32:23;;;;;;;9.70;9.40;;;2.40;99.90;;;;;;5011652;28;20256;-82
2022/01/17 01:34:57;;;;;;;9.50;9.20;;;2.30;99.90;;;;;;5008650;28;20244;-82
2022/01/17 01:37:25;;;;;;;9.60;9.30;;;2.30;99.90;;;;;;5005905;28;20228;-82
2022/01/17 01:39:54;;;;;;;9.53;9.23;;;2.30;99.90;;;;;;5005265;28;20241;-82
2022/01/17 01:42:23;;;;;;;9.57;9.27;;;2.30;99.90;;;;;;5001377;28;20320;-82
2022/01/17 01:44:53;;;;;;;9.50;9.20;;;2.30;99.90;;;;;;5004349;28;20240;-82
2022/01/17 01:47:28;;;;;;;9.43;9.13;;;2.40;99.90;;;;;;5006265;28;20296;-82
2022/01/17 01:49:59;;;;;;;9.27;8.97;;;2.40;99.90;;;;;;5005818;28;20217;-82
2022/01/17 01:52:27;;;;;;;9.53;9.23;;;2.40;99.90;;;;;;5005676;28;20236;-82
2022/01/17 01:54:56;;;;;;;9.23;8.93;;;2.40;99.90;;;;;;5002953;28;20303;-82
2022/01/17 01:57:25;;;;;;;9.40;9.10;;;2.40;99.90;;;;;;5004368;28;20217;-82
2022/01/17 01:59:55;;;;;;;9.47;9.17;;;2.40;99.90;;;;;;5003260;28;20236;-82
2022/01/17 02:02:24;;;;;;;9.50;9.20;;;2.40;99.90;;;;;;5002870;28;20387;-82
2022/01/17 02:04:53;;;;;;;9.90;9.60;;;2.40;99.90;;;;;;5002690;28;20244;-82
2022/01/17 02:07:33;;;;;;;9.90;9.60;;;2.40;99.90;;;;;;5009219;28;20229;-82
2022/01/17 02:10:01;;;;;;;9.57;9.27;;;2.40;99.90;;;;;;5020497;28;20217;-81
2022/01/17 02:12:30;;;;;;;9.57;9.27;;;2.40;99.90;;;;;;5020482;28;20205;-81
2022/01/17 02:15:00;;;;;;;9.70;9.40;;;2.50;99.90;;;;;;5006106;28;20244;-82
2022/01/17 02:17:30;;;;;;;9.53;9.23;;;2.50;99.90;;;;;;5004551;28;20232;-82
2022/01/17 02:20:09;;;;;;;9.43;9.13;;;2.50;99.90;;;;;;5002293;28;20229;-82
2022/01/17 02:22:42;;;;;;;9.57;9.27;;;2.40;99.90;;;;;;5001387;28;20229;-82
2022/01/17 02:25:16;;;;;;;9.27;8.97;;;2.40;99.90;;;;;;5000746;28;20232;-82
2022/01/17 02:27:45;;;;;;;9.73;9.43;;;2.40;99.90;;;;;;5001482;28;20229;-82
2022/01/17 02:30:17;;;;;;;9.53;9.23;;;2.40;99.90;;;;;;5001602;28;20225;-82
2022/01/17 02:32:45;;;;;;;9.50;9.20;;;2.40;99.90;;;;;;5001066;28;20331;-82
2022/01/17 02:35:18;;;;;;;9.50;9.20;;;2.40;99.90;;;;;;5001817;28;20276;-82
2022/01/17 02:37:50;;;;;;;9.43;9.13;;;2.40;99.90;;;;;;5001477;28;20240;-82
2022/01/17 02:40:21;;;;;;;9.50;9.20;;;2.50;99.90;;;;;;5001857;28;20236;-82
2022/01/17 02:42:51;;;;;;;9.33;9.03;;;2.50;99.90;;;;;;5011719;28;20240;-82
2022/01/17 02:45:31;;;;;;;9.50;9.20;;;2.50;99.90;;;;;;5014540;28;20220;-81
2022/01/17 02:48:06;;;;;;;9.57;9.27;;;2.50;99.90;;;;;;5016868;28;20272;-83
2022/01/17 02:50:44;;;;;;;9.50;9.20;;;2.50;99.90;;;;;;5016940;28;20212;-81
2022/01/17 02:53:12;;;;;;;9.57;9.27;;;2.50;99.90;;;;;;5016640;28;20228;-82
2022/01/17 02:55:46;;;;;;;9.60;9.30;;;2.50;99.90;;;;;;5014717;28;20280;-83
2022/01/17 02:58:14;;;;;;;9.40;9.10;;;2.50;99.90;;;;;;5016155;28;20260;-82
2022/01/17 03:00:42;;;;;;;9.23;8.93;;;2.50;99.90;;;;;;5017246;28;20216;-82
2022/01/17 03:03:14;;;;;;;9.20;8.90;;;2.50;99.90;;;;;;5014249;28;20224;-83
2022/01/17 03:05:44;;;;;;;9.50;9.20;;;2.50;99.90;;;;;;5019567;28;20244;-82
2022/01/17 03:08:12;;;;;;;9.20;8.90;;;2.50;99.90;;;;;;5018455;28;20263;-80
2022/01/17 03:10:40;;;;;;;9.43;9.13;;;2.50;99.90;;;;;;5016106;28;20221;-83
2022/01/17 03:13:10;;;;;;;9.40;9.10;;;2.50;99.90;;;;;;5014775;28;20246;-83
2022/01/17 03:15:39;;;;;;;9.43;9.13;;;2.50;99.90;;;;;;5010941;28;20260;-83
2022/01/17 03:18:07;;;;;;;9.40;9.10;;;2.50;99.90;;;;;;5007921;28;20240;-83
2022/01/17 03:20:38;;;;;;;9.37;9.07;;;2.50;99.90;;;;;;5007123;28;20232;-83
2022/01/17 03:23:10;;;;;;;9.50;9.20;;;2.50;99.90;;;;;;5005841;28;20237;-83
2022/01/17 03:25:38;;;;;;;9.30;9.00;;;2.50;99.90;;;;;;5005919;28;20247;-83
2022/01/17 03:28:07;;;;;;;9.30;9.00;;;2.50;99.90;;;;;;5005456;28;20228;-83
2022/01/17 03:30:38;;;;;;;9.40;9.10;;;2.50;99.90;;;;;;5007653;28;20228;-83
2022/01/17 03:33:17;;;;;;;9.50;9.20;;;2.50;99.90;;;;;;5008547;28;20213;-83
2022/01/17 03:35:45;;;;;;;9.33;9.03;;;2.50;99.90;;;;;;5006978;28;20268;-83
2022/01/17 03:38:23;;;;;;;9.30;9.00;;;2.50;99.90;;;;;;5005702;28;20233;-83
2022/01/17 03:40:53;;;;;;;9.17;8.87;;;2.50;99.90;;;;;;5005819;28;20248;-84
2022/01/17 03:43:22;;;;;;;9.33;9.03;;;2.50;99.90;;;;;;5005682;28;20252;-83
2022/01/17 03:45:52;;;;;;;9.40;9.10;;;2.50;99.90;;;;;;5005256;28;20229;-83
2022/01/17 03:48:21;;;;;;;9.23;8.93;;;2.50;99.90;;;;;;5005002;28;20248;-83
2022/01/17 03:50:51;;;;;;;9.53;9.23;;;2.50;99.90;;;;;;5005113;28;20237;-83
2022/01/17 03:53:23;;;;;;;9.43;9.13;;;2.40;99.90;;;;;;5005866;28;20296;-83
2022/01/17 03:55:52;;;;;;;9.30;9.00;;;2.40;99.90;;;;;;5006787;28;20396;-84
2022/01/17 03:58:21;;;;;;;9.50;9.20;;;2.50;99.90;;;;;;5006954;28;20782;-84
2022/01/17 04:00:50;;;;;;;9.70;9.40;;;2.50;99.90;;;;;;5007231;28;20724;-82
2022/01/17 04:03:18;;;;;;;9.37;9.07;;;2.40;99.90;;;;;;5014236;28;20233;-84
2022/01/17 04:05:48;;;;;;;9.50;9.20;;;2.50;99.90;;;;;;5008518;28;20291;-84
2022/01/17 04:08:17;;;;;;;9.77;9.47;;;2.50;99.90;;;;;;5006313;28;20217;-84
2022/01/17 04:10:55;;;;;;;9.50;9.20;;;2.50;99.90;;;;;;5004545;28;20225;-84
2022/01/17 04:13:24;;;;;;;9.63;9.33;;;2.50;99.90;;;;;;5003959;28;20232;-83
2022/01/17 04:15:54;;;;;;;9.40;9.10;;;2.50;99.90;;;;;;5004970;28;20248;-84
2022/01/17 04:18:24;;;;;;;9.50;9.20;;;2.50;99.90;;;;;;5004933;28;20235;-84
2022/01/17 04:20:53;;;;;;;9.70;9.40;;;2.50;99.90;;;;;;5005219;28;20320;-84
2022/01/17 04:23:22;;;;;;;9.37;9.07;;;2.50;99.90;;;;;;5009483;28;20300;-84
2022/01/17 04:26:02;;;;;;;9.50;9.20;;;2.50;99.90;;;;;;5005619;28;20296;-84
2022/01/17 04:28:30;;;;;;;9.43;9.13;;;2.50;99.90;;;;;;5004878;28;20719;-84
2022/01/17 04:30:59;;;;;;;9.40;9.10;;;2.50;99.90;;;;;;5004897;28;20224;-84
2022/01/17 04:33:28;;;;;;;9.40;9.10;;;2.50;99.90;;;;;;5004352;28;20243;-81
2022/01/17 04:35:56;;;;;;;9.30;9.00;;;2.50;99.90;;;;;;5005492;28;20299;-84
2022/01/17 04:38:28;;;;;;;9.70;9.40;;;2.50;99.90;;;;;;5004588;28;20225;-84
2022/01/17 04:41:13;;;;;;;9.40;9.10;;;2.50;99.90;;;;;;5005079;28;20232;-83
2022/01/17 04:43:56;;;;;;;9.23;8.93;;;2.50;99.90;;;;;;5007277;28;20228;-84
2022/01/17 04:46:24;;;;;;;9.23;8.93;;;2.50;99.90;;;;;;5006777;28;20228;-83
2022/01/17 04:48:52;;;;;;;9.40;9.10;;;2.50;99.90;;;;;;5007084;28;20256;-83
2022/01/17 04:51:21;;;;;;;9.50;9.20;;;2.50;99.90;;;;;;5005409;28;20224;-84
2022/01/17 04:54:09;;;;;;;9.27;8.97;;;2.50;99.90;;;;;;5005315;28;20244;-83
2022/01/17 04:56:40;;;;;;;9.07;8.77;;;2.50;99.90;;;;;;5004537;28;20240;-84
2022/01/17 04:59:08;;;;;;;9.43;9.13;;;2.50;99.90;;;;;;5004475;28;20279;-83
2022/01/17 05:01:37;;;;;;;9.53;9.23;;;2.50;99.90;;;;;;5013380;28;20221;-82
2022/01/17 05:04:06;;;;;;;9.30;9.00;;;2.50;99.90;;;;;;5021375;28;20232;-81
2022/01/17 05:06:35;;;;;;;9.07;8.77;;;2.40;99.90;;;;;;5021785;28;20240;-81
2022/01/17 05:09:05;;;;;;;9.53;9.23;;;2.50;99.90;;;;;;5007873;28;20233;-82
2022/01/17 05:11:34;;;;;;;9.40;9.10;;;2.50;99.90;;;;;;5004683;28;20221;-83
2022/01/17 05:14:13;;;;;;;9.37;9.07;;;2.50;99.90;;;;;;5004379;28;20266;-83
2022/01/17 05:16:46;;;;;;;9.50;9.20;;;2.50;99.90;;;;;;5023503;23;20300;-82
2022/01/17 05:21:59;;;;;;;9.60;9.30;;;2.60;99.90;;;;;;5007167;28;20209;-81
2022/01/17 05:24:28;;;;;;;9.90;9.60;;;2.60;99.90;;;;;;5006955;28;20237;-80
2022/01/17 05:26:57;;;;;;;9.70;9.40;;;2.50;99.90;;;;;;5019789;28;20337;-80
2022/01/17 05:29:49;;;;;;;9.70;9.40;;;2.50;99.90;;;;;;5019975;28;20257;-80
2022/01/17 05:32:18;;;;;;;9.50;9.20;;;2.50;99.90;;;;;;5017375;28;20216;-81
2022/01/17 05:34:45;;;;;;;9.50;9.20;;;2.50;99.90;;;;;;5014607;28;20284;-80
2022/01/17 05:37:15;;;;;;;9.60;9.30;;;2.40;99.90;;;;;;5004458;28;20245;-80
2022/01/17 05:39:44;;;;;;;9.60;9.30;;;2.40;99.90;;;;;;5004337;28;20329;-81
2022/01/17 05:42:14;;;;;;;9.90;9.60;;;2.40;99.90;;;;;;5005500;28;20215;-81
2022/01/17 05:44:45;;;;;;;9.80;9.50;;;2.40;99.90;;;;;;5005560;28;20233;-81
2022/01/17 05:47:14;;;;;;;9.47;9.17;;;2.40;99.90;;;;;;5005131;28;20248;-81
2022/01/17 05:49:42;;;;;;;9.23;8.93;;;2.40;99.90;;;;;;5005947;28;20228;-81
2022/01/17 05:52:11;;;;;;;9.40;9.10;;;2.40;99.90;;;;;;5005553;28;20251;-81
2022/01/17 05:54:41;;;;;;;9.40;9.10;;;2.40;99.90;;;;;;5005388;28;20291;-82
2022/01/17 05:57:11;;;;;;;9.47;9.17;;;2.40;99.90;;;;;;5007394;28;20249;-81
2022/01/17 05:59:40;;;;;;;9.67;9.37;;;2.40;99.90;;;;;;5018178;28;20272;-80
2022/01/17 06:02:11;;;;;;;9.50;9.20;;;2.40;99.90;;;;;;5011575;28;20224;-81
2022/01/17 06:04:39;;;;;;;9.63;9.33;;;2.50;99.90;;;;;;5007778;28;20224;-82
2022/01/17 06:07:08;;;;;;;9.60;9.30;;;2.50;99.90;;;;;;5006385;28;20291;-82
2022/01/17 06:09:37;;;;;;;9.70;9.40;;;2.50;99.90;;;;;;5006313;28;20221;-82
2022/01/17 06:12:06;;;;;;;9.50;9.20;;;2.50;99.90;;;;;;5004683;28;20235;-81
2022/01/17 06:14:36;;;;;;;9.50;9.20;;;2.50;99.90;;;;;;5004434;28;20237;-82
2022/01/17 06:17:05;;;;;;;9.30;9.00;;;2.50;99.90;;;;;;5004677;28;20241;-82
2022/01/17 06:22:22;;;;;;;9.40;9.10;;;2.40;99.90;;;;;;5003568;28;20712;-81
2022/01/17 06:24:51;;;;;;;9.10;8.80;;;2.50;99.90;;;;;;5004030;28;20233;-82
2022/01/17 06:27:21;;;;;;;9.20;8.90;;;2.40;99.90;;;;;;5005025;28;20241;-82
2022/01/17 06:29:52;;;;;;;9.50;9.20;;;2.40;99.90;;;;;;5004666;28;20237;-80
2022/01/17 06:32:20;;;;;;;9.30;9.00;;;2.40;99.90;;;;;;5005186;28;20299;-82
2022/01/17 06:34:52;;;;;;;9.20;8.90;;;2.30;99.90;;;;;;5004412;28;20228;-82
2022/01/17 06:37:20;;;;;;;9.53;9.23;;;2.30;99.90;;;;;;5004983;28;20236;-82
2022/01/17 06:39:48;;;;;;;9.40;9.10;;;2.40;99.90;;;;;;5005595;28;20280;-82
2022/01/17 06:42:19;;;;;;;9.00;8.70;;;2.30;99.90;;;;;;5005452;28;20252;-80
2022/01/17 06:44:47;;;;;;;9.40;9.10;;;2.30;99.90;;;;;;5004030;28;20229;-82
2022/01/17 06:47:16;;;;;;;9.20;8.90;;;2.40;99.90;;;;;;5005175;28;20229;-82
2022/01/17 06:49:45;;;;;;;9.37;9.07;;;2.40;99.90;;;;;;5006383;28;20221;-82
2022/01/17 06:52:18;;;;;;;9.20;8.90;;;2.40;99.90;;;;;;5008015;28;20228;-82
2022/01/17 06:54:45;;;;;;;9.20;8.90;;;2.40;99.90;;;;;;5008224;28;20228;-81
2022/01/17 06:57:14;;;;;;;8.87;8.63;;;2.40;99.90;;;;;;5005922;28;20320;-81
2022/01/17 06:59:44;;;;;;;9.30;9.00;;;2.50;99.90;;;;;;5006973;28;20304;-80
2022/01/17 07:02:13;;;;;;;9.30;9.00;;;2.50;99.90;;;;;;5003368;28;20232;-81
2022/01/17 07:04:42;;;;;;;9.90;9.60;;;2.50;99.90;;;;;;5000706;28;20260;-81
2022/01/17 07:07:13;;;;;;;10.20;9.90;;;2.50;99.90;;;;;;5000577;28;20448;-84
2022/01/17 07:09:44;;;;;;;10.00;9.70;;;2.60;99.90;;;;;;5002012;28;20264;-84
2022/01/17 07:12:12;;;;;;;9.90;9.60;;;2.60;99.90;;;;;;5004123;28;21068;-84
2022/01/17 07:17:57;;;;;;;9.77;9.47;;;2.70;99.90;;;;;;5000707;28;20342;-86
2022/01/17 07:20:25;;;;;;;9.77;9.47;;;2.80;99.90;;;;;;5004177;28;20240;-84
2022/01/17 07:28:46;;;;;;;10.00;9.70;;;2.70;99.90;;;;;;5003394;28;20303;-89
2022/01/17 07:31:18;;;;;;;9.67;9.37;;;2.80;99.90;;;;;;5004624;28;20225;-88
2022/01/17 07:34:18;;;;;;;9.83;9.53;;;2.80;99.90;;;;;;5005344;28;20225;-88
2022/01/17 07:43:52;;;;;;;9.50;9.20;;;2.90;99.90;;;;;;5001440;28;20260;-88
2022/01/17 07:46:25;;;;;;;9.63;9.33;;;2.90;99.90;;;;;;5003195;28;20229;-88
2022/01/17 07:49:09;;;;;;;9.97;9.67;;;2.90;99.90;;;;;;5003324;28;20236;-87
2022/01/17 07:54:44;;;;;;;9.30;9.00;;;2.90;99.90;;;;;;5004731;28;20229;-87
2022/01/17 08:01:20;;;;;;;9.70;9.40;;;2.90;99.90;;;;;;5002152;28;20251;-88
2022/01/17 08:04:05;;;;;;;9.60;9.30;;;2.90;99.90;;;;;;5003838;28;20225;-88
2022/01/17 08:07:53;;;;;;;;;;;;;;;;;;;;;
2022/01/17 08:13:56;;;;;;;9.30;9.00;;;3.00;99.90;;;;;;4961417;28;20233;-87
2022/01/17 08:23:28;;;;;;;9.53;9.23;;;2.90;99.90;;;;;;4980246;28;20246;-88
2022/01/17 08:29:37;;;;;;;9.70;9.40;;;3.00;99.90;;;;;;4990279;28;20231;-89
2022/01/17 08:32:34;;;;;;;9.37;9.07;;;3.00;99.90;;;;;;4981394;28;20389;-88
2022/01/17 08:35:03;;;;;;;9.67;9.37;;;3.00;99.90;;;;;;4981181;28;20221;-84
2022/01/17 08:38:32;;;;;;;9.77;9.47;;;3.10;99.90;;;;;;4971305;28;20234;-88
2022/01/17 08:41:26;;;;;;;9.63;9.33;;;3.10;99.90;;;;;;4971118;28;20228;-89
2022/01/17 08:47:00;;;;;;;9.20;8.90;;;3.20;99.90;;;;;;5005986;28;20229;-86
2022/01/17 08:49:31;;;;;;;9.50;9.20;;;3.20;99.90;;;;;;5005430;28;20236;-88
2022/01/17 08:52:20;;;;;;;9.50;9.20;;;3.20;99.90;;;;;;5006197;28;20236;-89
2022/01/17 08:55:07;;;;;;;9.50;9.20;;;3.20;99.90;;;;;;5008843;28;20225;-90
2022/01/17 08:58:26;;;;;;;9.27;8.97;;;3.20;99.90;;;;;;5004938;28;20228;-91
2022/01/17 09:08:08;;;;;;;9.50;9.20;;;3.30;99.90;;;;;;4969370;28;20337;-90
2022/01/17 09:25:23;;;;;;;9.50;9.20;;;3.30;99.90;;;;;;4892427;29;20232;-90
2022/01/17 10:09:39;;;;;;;;;;;;;;;;;;;;;
2022/01/17 10:20:05;;;;;;;9.03;8.73;;;3.60;99.90;;;;;;4941160;28;20230;-86
2022/01/17 10:22:56;;;;;;;9.37;9.07;;;3.60;99.90;;;;;;4967747;28;20251;-88
2022/01/17 10:25:42;;;;;;;9.53;9.23;;;3.60;99.90;;;;;;4966702;28;20234;-87
2022/01/17 11:16:51;;;;;;;9.90;9.60;;;3.70;99.90;;;;;;5413585;23;20335;-82
2022/01/17 11:23:04;;;;;;;9.80;9.50;;;3.80;99.90;;;;;;5001962;28;20232;-83
2022/01/17 11:25:35;;;;;;;9.67;9.37;;;3.80;99.90;;;;;;5000658;28;20228;-84
2022/01/17 11:28:06;;;;;;;9.50;9.20;;;3.80;99.90;;;;;;5000802;28;20241;-84
2022/01/17 11:30:39;;;;;;;9.60;9.30;;;3.80;99.90;;;;;;4999596;28;20237;-83
2022/01/17 11:33:14;;;;;;;9.30;9.00;;;3.90;99.90;;;;;;4999888;28;20350;-83
2022/01/17 11:35:51;;;;;;;9.50;9.20;;;3.90;99.90;;;;;;5009379;28;20303;-83
2022/01/17 11:42:35;;;;;;;8.90;8.70;;;4.00;99.90;;;;;;4918535;29;20231;-83
2022/01/17 11:45:48;;;;;;;9.10;8.80;;;3.90;99.90;;;;;;4973305;28;20277;-84
2022/01/17 11:48:34;;;;;;;9.20;8.90;;;3.90;99.90;;;;;;5007935;28;20725;-81
2022/01/17 11:51:14;;;;;;;8.97;8.77;;;4.00;99.90;;;;;;5007891;28;20228;-83
2022/01/17 11:53:51;;;;;;;9.30;9.00;;;4.00;99.90;;;;;;5008543;28;20232;-83
2022/01/17 11:56:48;;;;;;;9.00;8.80;;;4.00;99.90;;;;;;5009122;28;20236;-84
2022/01/17 11:59:40;;;;;;;9.07;8.77;;;4.00;99.90;;;;;;5007666;28;20233;-84
2022/01/17 12:02:39;;;;;;;8.80;8.60;;;4.00;99.90;;;;;;5006191;28;20228;-83
2022/01/17 12:05:37;;;;;;;8.83;8.63;;;4.00;99.90;;;;;;5006531;28;20260;-84
2022/01/17 12:08:15;;;;;;;9.00;8.80;;;4.00;99.90;;;;;;4985812;28;20268;-83
2022/01/17 12:10:53;;;;;;;9.13;8.90;;;4.10;99.90;;;;;;5007211;28;20235;-85
2022/01/17 12:13:58;;;;;;;9.07;8.87;;;4.10;99.90;;;;;;5005875;28;20233;-85
2022/01/17 12:16:37;;;;;;;8.90;8.70;;;4.10;99.90;;;;;;5005120;28;20236;-86
2022/01/17 12:19:23;;;;;;;8.70;8.50;;;4.10;99.90;;;;;;5005004;28;20260;-85
2022/01/17 12:22:10;;;;;;;9.03;8.83;;;4.20;99.90;;;;;;5005874;28;20229;-86
2022/01/17 12:24:47;;;;;;;9.50;9.20;;;4.20;99.90;;;;;;5005478;28;20228;-85
2022/01/17 12:27:29;;;;;;;8.87;8.67;;;4.20;99.90;;;;;;5016615;28;20239;-84
2022/01/17 12:30:22;;;;;;;8.33;8.13;;;4.20;99.90;;;;;;5009850;28;20284;-85
2022/01/17 12:33:07;;;;;;;8.40;8.20;;;4.30;99.90;;;;;;5007025;28;20225;-85
2022/01/17 12:35:46;;;;;;;8.33;8.13;;;4.30;99.90;;;;;;5005039;28;20346;-85
2022/01/17 12:38:35;;;;;;;8.27;8.07;;;4.30;99.90;;;;;;5005186;28;20310;-85
2022/01/17 12:41:07;;;;;;;8.50;8.30;;;4.20;99.90;;;;;;5005365;28;20247;-84
2022/01/17 12:46:39;;;;;;;8.40;8.20;;;4.20;99.90;;;;;;5136586;27;1824949;-86
2022/01/17 12:49:10;;;;;;;8.57;8.37;;;4.10;99.90;;;;;;5160373;27;20243;-84
2022/01/17 12:51:47;;;;;;;8.80;8.60;;;4.20;99.90;;;;;;5160631;27;20226;-84
2022/01/17 12:54:22;;;;;;;8.63;8.43;;;4.20;99.90;;;;;;5169507;27;20215;-83
2022/01/17 12:57:06;;;;;;;8.77;8.57;;;4.30;99.90;;;;;;5176738;27;20230;-83
2022/01/17 13:00:08;;;;;;;8.97;8.73;;;4.30;99.90;;;;;;5175915;27;20238;-84
2022/01/17 13:02:58;;;;;;;8.80;8.60;;;4.20;99.90;;;;;;5160454;27;20258;-84
2022/01/17 13:05:32;;;;;;;8.80;8.60;;;4.20;99.90;;;;;;5160069;27;20227;-84
2022/01/17 13:08:12;;;;;;;8.73;8.53;;;4.30;99.90;;;;;;5160774;27;20231;-84
2022/01/17 13:10:50;;;;;;;9.13;8.83;;;4.30;99.90;;;;;;5160823;27;20238;-84
2022/01/17 13:13:38;;;;;;;9.47;9.17;;;4.30;99.90;;;;;;5159872;27;20223;-83
2022/01/17 13:19:11;;;;;;;8.80;8.60;;;4.20;99.90;;;;;;5160973;27;20217;-81
2022/01/17 13:21:58;;;;;;;9.40;9.10;;;4.20;99.90;;;;;;5177634;27;20216;-83
2022/01/17 13:33:13;;;;;;;9.03;8.77;;;4.30;99.90;;;;;;5141269;27;20242;-84
2022/01/17 13:36:12;;;;;;;9.17;8.87;;;4.30;99.90;;;;;;5163462;27;20239;-84
2022/01/17 13:41:43;;;;;;;8.80;8.60;;;4.20;99.90;;;;;;5163602;27;20227;-84
2022/01/17 13:44:30;;;;;;;9.20;8.90;;;4.20;99.90;;;;;;5162087;27;20319;-84
2022/01/17 13:47:17;;;;;;;8.90;8.70;;;4.20;99.90;;;;;;5161324;27;20253;-84
2022/01/17 13:49:56;;;;;;;9.27;8.97;;;4.10;99.90;;;;;;5161942;27;20228;-84
2022/01/17 13:52:38;;;;;;;9.17;8.87;;;4.10;99.90;;;;;;5161597;27;20231;-84
2022/01/17 13:55:49;;;;;;;9.20;8.90;;;4.10;99.90;;;;;;5162858;27;20259;-84
2022/01/17 13:59:04;;;;;;;9.40;9.10;;;4.10;99.90;;;;;;5152281;27;20224;-83
2022/01/17 14:01:50;;;;;;;9.80;9.50;;;4.20;99.90;;;;;;5162420;27;20220;-83
2022/01/17 14:04:31;;;;;;;9.70;9.40;;;4.20;99.90;;;;;;5162887;27;20207;-83
2022/01/17 14:07:37;;;;;;;9.90;9.60;;;4.20;99.90;;;;;;5163126;27;20239;-83
2022/01/17 14:10:34;;;;;;;10.00;9.70;;;4.10;99.90;;;;;;5163291;27;20224;-82
2022/01/17 14:13:26;;;;;;;9.50;9.20;;;4.20;99.90;;;;;;5162984;27;20222;-83
2022/01/17 14:16:17;;;;;;;9.80;9.50;;;4.20;99.90;;;;;;5163140;27;20226;-84
2022/01/17 14:18:58;;;;;;;9.50;9.20;;;4.10;99.90;;;;;;5162979;27;20235;-82
2022/01/17 14:21:40;;;;;;;9.37;9.07;;;4.20;99.90;;;;;;5162436;27;20212;-84
2022/01/17 14:24:32;;;;;;;10.00;9.70;;;4.10;99.90;;;;;;5162589;27;20215;-83
2022/01/17 14:27:24;;;;;;;9.90;9.60;;;4.10;99.90;;;;;;5162382;27;20251;-83
2022/01/17 14:30:42;;;;;;;9.80;9.50;;;4.10;99.90;;;;;;5162385;27;20199;-82
2022/01/17 14:33:36;;;;;;;9.67;9.37;;;4.10;99.90;;;;;;5162587;27;20216;-83
2022/01/17 14:36:13;;;;;;;9.77;9.47;;;4.10;99.90;;;;;;5160550;27;20231;-84
2022/01/17 14:41:58;;;;;;;9.73;9.43;;;4.10;99.90;;;;;;5147948;27;20224;-85
2022/01/17 14:50:25;;;;;;;9.60;9.30;;;4.00;99.90;;;;;;5150997;27;20208;-84
2022/01/17 14:53:00;;;;;;;9.57;9.27;;;4.00;99.90;;;;;;5150373;27;20220;-84
2022/01/17 14:59:26;;;;;;;9.83;9.53;;;3.90;99.90;;;;;;5150104;27;20238;-84
2022/01/17 15:02:10;;;;;;;10.47;10.17;;;3.90;99.90;;;;;;5148938;27;20213;-84
2022/01/17 15:04:50;;;;;;;10.30;10.00;;;3.90;99.90;;;;;;5149679;27;20228;-83
2022/01/17 15:07:21;;;;;;;10.30;10.00;;;3.90;99.90;;;;;;5148828;27;20235;-84
2022/01/17 15:10:01;;;;;;;9.90;9.60;;;3.80;99.90;;;;;;5148380;27;20266;-84
2022/01/17 15:12:35;;;;;;;9.87;9.57;;;3.80;99.90;;;;;;5152994;27;20315;-84
2022/01/17 15:15:13;;;;;;;9.73;9.43;;;3.80;99.90;;;;;;5157037;27;20234;-84
2022/01/17 15:17:49;;;;;;;10.20;9.90;;;3.80;99.90;;;;;;5158435;27;20322;-85
2022/01/17 15:20:26;;;;;;;9.80;9.50;;;3.80;99.90;;;;;;5151535;27;20238;-83
2022/01/17 15:23:06;;;;;;;9.83;9.53;;;3.80;99.90;;;;;;5153452;27;20220;-84
2022/01/17 15:25:35;;;;;;;9.80;9.50;;;3.80;99.90;;;;;;5153983;27;20231;-83
2022/01/17 15:28:15;;;;;;;10.10;9.80;;;3.80;99.90;;;;;;5154919;27;20228;-84
2022/01/17 15:31:15;;;;;;;10.10;9.80;;;3.80;99.90;;;;;;5154318;27;20292;-84
2022/01/17 15:36:29;;;;;;;9.70;9.40;;;3.70;99.90;;;;;;5145910;27;20232;-85
2022/01/17 15:39:06;;;;;;;9.60;9.30;;;3.70;99.90;;;;;;5147935;27;20235;-84
2022/01/17 15:41:41;;;;;;;9.80;9.50;;;3.70;99.90;;;;;;5127112;28;20275;-85
2022/01/17 15:44:55;;;;;;;9.93;9.63;;;3.70;99.90;;;;;;5141647;27;20214;-85
2022/01/17 15:51:17;;;;;;;9.73;9.43;;;3.70;99.90;;;;;;5124123;28;20212;-85
2022/01/17 15:53:47;;;;;;;9.53;9.23;;;3.70;99.90;;;;;;5128618;28;20228;-84
2022/01/17 15:56:26;;;;;;;9.60;9.30;;;3.70;99.90;;;;;;5125505;28;20483;-85
2022/01/17 15:59:08;;;;;;;9.63;9.33;;;3.70;99.90;;;;;;5132678;27;20223;-83
2022/01/17 16:02:28;;;;;;;9.70;9.40;;;3.70;99.90;;;;;;5140593;27;20238;-82
2022/01/17 16:08:26;;;;;;;10.10;9.80;;;3.70;99.90;;;;;;5139422;27;20224;-82
2022/01/17 16:10:58;;;;;;;9.47;9.17;;;3.70;99.90;;;;;;5135490;27;20225;-82
2022/01/17 16:13:35;;;;;;;9.20;8.90;;;3.70;99.90;;;;;;5126754;28;20258;-84
2022/01/17 16:22:08;;;;;;;9.13;8.83;;;3.60;99.90;;;;;;5124214;28;20233;-84
2022/01/17 16:24:46;;;;;;;9.30;9.00;;;3.60;99.90;;;;;;5125526;28;20244;-84
2022/01/17 16:28:02;;;;;;;;;;;;;;;;;;;;;
2022/01/17 16:30:42;;;;;;;9.43;9.13;;;3.50;99.90;;;;;;5126390;28;20243;-84
2022/01/17 16:33:17;;;;;;;9.43;9.13;;;3.50;99.90;;;;;;5123286;28;20251;-83
2022/01/17 16:36:02;;;;;;;8.80;8.60;;;3.50;99.90;;;;;;5122950;28;20312;-83
2022/01/17 16:38:33;;;;;;;8.90;8.70;;;3.50;99.90;;;;;;5121397;28;20286;-83
2022/01/17 16:41:02;;;;;;;9.13;8.83;;;3.50;99.90;;;;;;5122043;28;20225;-83
2022/01/17 16:43:34;;;;;;;9.17;8.87;;;3.50;99.90;;;;;;5120511;28;20229;-83
2022/01/17 16:46:14;;;;;;;9.07;8.80;;;3.50;99.90;;;;;;5119739;28;20244;-82
2022/01/17 16:48:45;;;;;;;8.87;8.67;;;3.50;99.90;;;;;;5121052;28;20229;-82
2022/01/17 16:51:23;;;;;;;8.77;8.57;;;3.50;99.90;;;;;;5120527;28;20217;-83
2022/01/17 16:54:21;;;;;;;8.90;8.70;;;3.50;99.90;;;;;;5121741;28;20267;-82
2022/01/17 16:57:27;;;;;;;8.63;8.43;;;3.50;99.90;;;;;;5121256;27;20236;-82
2022/01/17 17:00:07;;;;;;;9.17;8.87;;;3.50;99.90;;;;;;5121986;28;20236;-83
2022/01/17 17:02:39;;;;;;;8.80;8.60;;;3.50;99.90;;;;;;5122837;28;20229;-82
2022/01/17 17:05:24;;;;;;;8.67;8.47;;;3.50;99.90;;;;;;5121783;28;20224;-80
2022/01/17 17:07:57;;;;;;;8.60;8.40;;;3.50;99.90;;;;;;5116689;27;21128;-82
2022/01/17 17:10:35;;;;;;;9.37;9.07;;;3.50;99.90;;;;;;5120267;28;20220;-81
2022/01/17 17:13:29;;;;;;;8.70;8.50;;;3.60;99.90;;;;;;5128435;28;20272;-80
2022/01/17 17:16:02;;;;;;;8.50;8.30;;;3.50;99.90;;;;;;5120873;28;20229;-81
2022/01/17 17:18:37;;;;;;;8.43;8.23;;;3.60;99.90;;;;;;5132646;22;20257;-84
2022/01/17 17:21:05;;;;;;;8.20;8.00;;;3.60;99.90;;;;;;5114632;28;20228;-84
2022/01/17 17:23:34;;;;;;;8.70;8.50;;;3.60;99.90;;;;;;5107245;28;20281;-83
2022/01/17 17:26:14;;;;;;;8.53;8.33;;;3.60;99.90;;;;;;5105608;28;20230;-83
2022/01/17 17:28:42;;;;;;;8.43;8.23;;;3.60;99.90;;;;;;5104326;28;20280;-83
2022/01/17 17:31:14;;;;;;;8.60;8.40;;;3.70;99.90;;;;;;5105778;28;20232;-84
2022/01/17 17:33:42;;;;;;;8.70;8.50;;;3.70;99.90;;;;;;5109769;28;20225;-82
2022/01/17 17:36:14;;;;;;;9.10;8.80;;;3.70;99.90;;;;;;5109215;28;20290;-82
2022/01/17 17:38:42;;;;;;;8.83;8.63;;;3.70;99.90;;;;;;5108828;28;20252;-81
2022/01/17 17:41:19;;;;;;;8.80;8.60;;;3.70;99.90;;;;;;5108684;28;20256;-84